Arock, Oregon
Current Conditions -  °F | °C
As of 5:15 AM on Saturday 25 Oct 2014 (Local Time) from KEUL Reporting Station
Overcast Overcast  
Wind Chill: 43°   Ceiling: 200
Heat Index: 43°   Visibility: 0.25mi
Dew Point: 34°   Wind: 3mph
Humidity: 70%   Direction: 100°E
Pressure: 29.89"   Gusts: NA
Location:  42.91°N, 117.53°W
Report Text: KEUL 251115Z AUTO 10003KT 1/4SM OVC002 06/01 A2989 RMK AO1
Loading
Personal Weather Stations






























Interactive Weather Map New forecast layout! Learn more

10-Day Weather Forecast

Advertisements
Track Severe Weather on mobile